sensor_id;sensor_type;location;lat;lon;timestamp;temperature;humidity
15359;DHT22;7779;49.596;11.070;2024-02-04T00:01:19;10.20;73.40
15359;DHT22;7779;49.596;11.070;2024-02-04T00:03:45;10.10;73.30
15359;DHT22;7779;49.596;11.070;2024-02-04T00:06:11;10.10;73.20
15359;DHT22;7779;49.596;11.070;2024-02-04T00:08:36;10.30;73.40
15359;DHT22;7779;49.596;11.070;2024-02-04T00:11:02;10.20;73.40
15359;DHT22;7779;49.596;11.070;2024-02-04T00:13:30;10.20;73.30
15359;DHT22;7779;49.596;11.070;2024-02-04T00:15:56;10.10;73.20
15359;DHT22;7779;49.596;11.070;2024-02-04T00:18:24;10.20;73.30
15359;DHT22;7779;49.596;11.070;2024-02-04T00:20:50;10.20;73.30
15359;DHT22;7779;49.596;11.070;2024-02-04T00:23:16;10.20;73.30
15359;DHT22;7779;49.596;11.070;2024-02-04T00:25:42;10.20;73.40
15359;DHT22;7779;49.596;11.070;2024-02-04T00:28:08;10.20;73.20
15359;DHT22;7779;49.596;11.070;2024-02-04T00:30:39;10.20;73.20
15359;DHT22;7779;49.596;11.070;2024-02-04T00:33:06;10.20;73.20
15359;DHT22;7779;49.596;11.070;2024-02-04T00:35:32;10.20;73.10
15359;DHT22;7779;49.596;11.070;2024-02-04T00:37:57;10.20;73.10
15359;DHT22;7779;49.596;11.070;2024-02-04T00:40:23;10.20;73.10
15359;DHT22;7779;49.596;11.070;2024-02-04T00:42:49;10.20;73.10
15359;DHT22;7779;49.596;11.070;2024-02-04T00:45:15;10.20;73.10
15359;DHT22;7779;49.596;11.070;2024-02-04T00:47:41;10.20;73.10
15359;DHT22;7779;49.596;11.070;2024-02-04T00:50:07;10.20;73.10
15359;DHT22;7779;49.596;11.070;2024-02-04T00:52:34;10.20;73.00
15359;DHT22;7779;49.596;11.070;2024-02-04T00:54:59;10.20;73.00
15359;DHT22;7779;49.596;11.070;2024-02-04T00:57:25;10.20;73.00
15359;DHT22;7779;49.596;11.070;2024-02-04T00:59:51;10.20;73.00
15359;DHT22;7779;49.596;11.070;2024-02-04T01:02:16;10.10;72.90
15359;DHT22;7779;49.596;11.070;2024-02-04T01:04:42;10.20;73.00
15359;DHT22;7779;49.596;11.070;2024-02-04T01:07:08;10.20;73.00
15359;DHT22;7779;49.596;11.070;2024-02-04T01:09:33;10.20;73.00
15359;DHT22;7779;49.596;11.070;2024-02-04T01:11:59;10.10;72.90
15359;DHT22;7779;49.596;11.070;2024-02-04T01:14:25;10.20;73.00
15359;DHT22;7779;49.596;11.070;2024-02-04T01:16:51;10.20;73.00
15359;DHT22;7779;49.596;11.070;2024-02-04T01:19:16;10.10;72.90
15359;DHT22;7779;49.596;11.070;2024-02-04T01:21:43;10.10;72.90
15359;DHT22;7779;49.596;11.070;2024-02-04T01:24:10;10.10;72.90
15359;DHT22;7779;49.596;11.070;2024-02-04T01:26:35;10.10;73.00
15359;DHT22;7779;49.596;11.070;2024-02-04T01:29:01;10.10;73.00
15359;DHT22;7779;49.596;11.070;2024-02-04T01:31:27;10.10;73.10
15359;DHT22;7779;49.596;11.070;2024-02-04T01:33:53;10.10;73.10
15359;DHT22;7779;49.596;11.070;2024-02-04T01:36:18;10.10;73.10
15359;DHT22;7779;49.596;11.070;2024-02-04T01:38:44;10.00;73.00
15359;DHT22;7779;49.596;11.070;2024-02-04T01:41:10;10.00;73.10
15359;DHT22;7779;49.596;11.070;2024-02-04T01:43:35;10.00;73.20
15359;DHT22;7779;49.596;11.070;2024-02-04T01:46:01;10.00;73.20
15359;DHT22;7779;49.596;11.070;2024-02-04T01:48:27;10.00;73.20
15359;DHT22;7779;49.596;11.070;2024-02-04T01:50:54;10.00;73.20
15359;DHT22;7779;49.596;11.070;2024-02-04T01:53:22;10.00;73.30
15359;DHT22;7779;49.596;11.070;2024-02-04T01:55:49;10.00;73.30
15359;DHT22;7779;49.596;11.070;2024-02-04T01:58:15;10.00;73.30
15359;DHT22;7779;49.596;11.070;2024-02-04T02:00:42;10.00;74.00
15359;DHT22;7779;49.596;11.070;2024-02-04T02:03:11;9.90;74.40
15359;DHT22;7779;49.596;11.070;2024-02-04T02:05:39;10.00;73.50
15359;DHT22;7779;49.596;11.070;2024-02-04T02:08:06;10.00;73.50
15359;DHT22;7779;49.596;11.070;2024-02-04T02:10:32;10.00;73.50
15359;DHT22;7779;49.596;11.070;2024-02-04T02:13:16;10.00;73.50
15359;DHT22;7779;49.596;11.070;2024-02-04T02:15:51;10.00;73.60
15359;DHT22;7779;49.596;11.070;2024-02-04T02:21:36;10.00;73.60
15359;DHT22;7779;49.596;11.070;2024-02-04T02:24:14;10.00;73.60
15359;DHT22;7779;49.596;11.070;2024-02-04T02:26:46;10.00;73.40
15359;DHT22;7779;49.596;11.070;2024-02-04T02:29:12;10.10;73.60
15359;DHT22;7779;49.596;11.070;2024-02-04T02:31:39;10.00;73.50
15359;DHT22;7779;49.596;11.070;2024-02-04T02:34:07;10.00;73.60
15359;DHT22;7779;49.596;11.070;2024-02-04T02:36:57;10.00;73.50
15359;DHT22;7779;49.596;11.070;2024-02-04T02:39:36;10.00;74.00
15359;DHT22;7779;49.596;11.070;2024-02-04T02:42:09;10.00;73.70
15359;DHT22;7779;49.596;11.070;2024-02-04T02:44:38;10.00;73.60
15359;DHT22;7779;49.596;11.070;2024-02-04T02:47:05;10.00;73.60
15359;DHT22;7779;49.596;11.070;2024-02-04T02:49:33;10.00;73.60
15359;DHT22;7779;49.596;11.070;2024-02-04T02:51:58;10.00;73.60
15359;DHT22;7779;49.596;11.070;2024-02-04T02:54:24;10.00;73.70
15359;DHT22;7779;49.596;11.070;2024-02-04T02:56:50;10.00;73.70
15359;DHT22;7779;49.596;11.070;2024-02-04T02:59:16;10.00;73.70
15359;DHT22;7779;49.596;11.070;2024-02-04T03:01:41;10.00;73.70
15359;DHT22;7779;49.596;11.070;2024-02-04T03:04:07;10.00;73.80
15359;DHT22;7779;49.596;11.070;2024-02-04T03:06:33;10.00;73.80
15359;DHT22;7779;49.596;11.070;2024-02-04T03:08:58;10.00;73.80
15359;DHT22;7779;49.596;11.070;2024-02-04T03:11:24;10.00;73.90
15359;DHT22;7779;49.596;11.070;2024-02-04T03:13:50;10.00;73.80
15359;DHT22;7779;49.596;11.070;2024-02-04T03:16:16;10.00;73.90
15359;DHT22;7779;49.596;11.070;2024-02-04T03:18:42;10.00;73.90
15359;DHT22;7779;49.596;11.070;2024-02-04T03:21:15;10.00;73.90
15359;DHT22;7779;49.596;11.070;2024-02-04T03:23:43;10.00;74.00
15359;DHT22;7779;49.596;11.070;2024-02-04T03:26:10;10.00;73.90
15359;DHT22;7779;49.596;11.070;2024-02-04T03:28:37;10.00;74.00
15359;DHT22;7779;49.596;11.070;2024-02-04T03:31:03;10.00;73.90
15359;DHT22;7779;49.596;11.070;2024-02-04T03:33:29;10.00;74.00
15359;DHT22;7779;49.596;11.070;2024-02-04T03:35:55;10.00;73.90
15359;DHT22;7779;49.596;11.070;2024-02-04T03:38:21;10.00;73.90
15359;DHT22;7779;49.596;11.070;2024-02-04T03:40:47;10.00;74.00
15359;DHT22;7779;49.596;11.070;2024-02-04T03:43:15;10.00;73.90
15359;DHT22;7779;49.596;11.070;2024-02-04T03:45:41;9.90;74.90
15359;DHT22;7779;49.596;11.070;2024-02-04T03:48:07;9.90;74.90
15359;DHT22;7779;49.596;11.070;2024-02-04T03:50:33;9.90;75.00
15359;DHT22;7779;49.596;11.070;2024-02-04T03:52:58;9.90;75.00
15359;DHT22;7779;49.596;11.070;2024-02-04T03:55:25;9.90;75.00
15359;DHT22;7779;49.596;11.070;2024-02-04T03:57:51;9.90;75.00
15359;DHT22;7779;49.596;11.070;2024-02-04T04:00:17;9.90;75.00
15359;DHT22;7779;49.596;11.070;2024-02-04T04:02:43;9.90;75.00
15359;DHT22;7779;49.596;11.070;2024-02-04T04:05:12;9.90;75.00
15359;DHT22;7779;49.596;11.070;2024-02-04T04:07:40;9.90;75.20
15359;DHT22;7779;49.596;11.070;2024-02-04T04:10:06;9.90;75.20
15359;DHT22;7779;49.596;11.070;2024-02-04T04:12:32;9.80;74.90
15359;DHT22;7779;49.596;11.070;2024-02-04T04:14:58;9.80;75.00
15359;DHT22;7779;49.596;11.070;2024-02-04T04:17:24;9.80;75.00
15359;DHT22;7779;49.596;11.070;2024-02-04T04:19:50;9.80;75.00
15359;DHT22;7779;49.596;11.070;2024-02-04T04:22:15;9.80;75.20
15359;DHT22;7779;49.596;11.070;2024-02-04T04:24:41;9.70;75.20
15359;DHT22;7779;49.596;11.070;2024-02-04T04:27:07;9.70;75.20
15359;DHT22;7779;49.596;11.070;2024-02-04T04:29:32;9.70;75.20
15359;DHT22;7779;49.596;11.070;2024-02-04T04:31:58;9.70;75.10
15359;DHT22;7779;49.596;11.070;2024-02-04T04:34:24;9.70;75.20
15359;DHT22;7779;49.596;11.070;2024-02-04T04:36:49;9.70;75.40
15359;DHT22;7779;49.596;11.070;2024-02-04T04:39:15;9.70;75.40
15359;DHT22;7779;49.596;11.070;2024-02-04T04:41:44;9.70;75.40
15359;DHT22;7779;49.596;11.070;2024-02-04T04:44:10;9.70;75.50
15359;DHT22;7779;49.596;11.070;2024-02-04T04:46:39;9.70;75.50
15359;DHT22;7779;49.596;11.070;2024-02-04T04:49:05;9.70;75.50
15359;DHT22;7779;49.596;11.070;2024-02-04T04:51:31;9.70;75.60
15359;DHT22;7779;49.596;11.070;2024-02-04T04:53:57;9.60;75.40
15359;DHT22;7779;49.596;11.070;2024-02-04T04:56:23;9.60;75.40
15359;DHT22;7779;49.596;11.070;2024-02-04T04:58:49;9.60;75.50
15359;DHT22;7779;49.596;11.070;2024-02-04T05:01:16;9.60;75.60
15359;DHT22;7779;49.596;11.070;2024-02-04T05:03:42;9.60;75.60
15359;DHT22;7779;49.596;11.070;2024-02-04T05:06:07;9.60;75.70
15359;DHT22;7779;49.596;11.070;2024-02-04T05:08:33;9.60;75.60
15359;DHT22;7779;49.596;11.070;2024-02-04T05:10:59;9.60;75.70
15359;DHT22;7779;49.596;11.070;2024-02-04T05:13:25;9.60;75.70
15359;DHT22;7779;49.596;11.070;2024-02-04T05:15:50;9.60;75.70
15359;DHT22;7779;49.596;11.070;2024-02-04T05:18:16;9.70;75.80
15359;DHT22;7779;49.596;11.070;2024-02-04T05:20:42;9.60;75.70
15359;DHT22;7779;49.596;11.070;2024-02-04T05:23:09;9.70;75.60
15359;DHT22;7779;49.596;11.070;2024-02-04T05:25:35;9.70;75.60
15359;DHT22;7779;49.596;11.070;2024-02-04T05:28:00;9.70;75.60
15359;DHT22;7779;49.596;11.070;2024-02-04T05:30:27;9.60;75.40
15359;DHT22;7779;49.596;11.070;2024-02-04T05:32:53;9.70;75.60
15359;DHT22;7779;49.596;11.070;2024-02-04T05:35:18;9.70;75.50
15359;DHT22;7779;49.596;11.070;2024-02-04T05:37:44;9.70;75.60
15359;DHT22;7779;49.596;11.070;2024-02-04T05:40:10;9.70;75.60
15359;DHT22;7779;49.596;11.070;2024-02-04T05:42:37;9.70;75.60
15359;DHT22;7779;49.596;11.070;2024-02-04T05:45:04;9.70;75.50
15359;DHT22;7779;49.596;11.070;2024-02-04T05:47:31;9.70;75.60
15359;DHT22;7779;49.596;11.070;2024-02-04T05:49:57;9.60;75.40
15359;DHT22;7779;49.596;11.070;2024-02-04T05:52:22;10.20;74.90
15359;DHT22;7779;49.596;11.070;2024-02-04T05:54:48;9.60;75.50
15359;DHT22;7779;49.596;11.070;2024-02-04T05:57:14;9.60;75.50
15359;DHT22;7779;49.596;11.070;2024-02-04T05:59:40;9.60;75.50
15359;DHT22;7779;49.596;11.070;2024-02-04T06:02:05;9.60;75.50
15359;DHT22;7779;49.596;11.070;2024-02-04T06:04:32;9.60;75.50
15359;DHT22;7779;49.596;11.070;2024-02-04T06:06:58;9.60;75.40
15359;DHT22;7779;49.596;11.070;2024-02-04T06:09:24;9.60;75.50
15359;DHT22;7779;49.596;11.070;2024-02-04T06:11:49;9.60;75.50
15359;DHT22;7779;49.596;11.070;2024-02-04T06:14:15;9.60;75.50
15359;DHT22;7779;49.596;11.070;2024-02-04T06:16:41;9.60;75.50
15359;DHT22;7779;49.596;11.070;2024-02-04T06:19:06;9.60;75.60
15359;DHT22;7779;49.596;11.070;2024-02-04T06:21:34;9.50;75.60
15359;DHT22;7779;49.596;11.070;2024-02-04T06:24:00;9.50;75.60
15359;DHT22;7779;49.596;11.070;2024-02-04T06:26:25;9.50;75.60
15359;DHT22;7779;49.596;11.070;2024-02-04T06:28:51;9.50;75.60
15359;DHT22;7779;49.596;11.070;2024-02-04T06:31:17;9.50;75.70
15359;DHT22;7779;49.596;11.070;2024-02-04T06:33:43;9.50;75.80
15359;DHT22;7779;49.596;11.070;2024-02-04T06:36:10;9.50;75.90
15359;DHT22;7779;49.596;11.070;2024-02-04T06:38:36;9.50;76.00
15359;DHT22;7779;49.596;11.070;2024-02-04T06:41:02;9.40;75.90
15359;DHT22;7779;49.596;11.070;2024-02-04T06:43:27;9.30;75.90
15359;DHT22;7779;49.596;11.070;2024-02-04T06:45:53;9.40;76.00
15359;DHT22;7779;49.596;11.070;2024-02-04T06:48:19;9.50;76.20
15359;DHT22;7779;49.596;11.070;2024-02-04T06:50:45;9.50;76.30
15359;DHT22;7779;49.596;11.070;2024-02-04T06:53:13;9.50;76.20
15359;DHT22;7779;49.596;11.070;2024-02-04T06:55:39;9.50;76.30
15359;DHT22;7779;49.596;11.070;2024-02-04T06:58:05;9.50;76.20
15359;DHT22;7779;49.596;11.070;2024-02-04T07:00:31;9.50;76.20
15359;DHT22;7779;49.596;11.070;2024-02-04T07:02:56;9.50;76.20
15359;DHT22;7779;49.596;11.070;2024-02-04T07:05:22;9.50;76.10
15359;DHT22;7779;49.596;11.070;2024-02-04T07:07:49;9.50;76.20
15359;DHT22;7779;49.596;11.070;2024-02-04T07:10:15;9.50;76.20
15359;DHT22;7779;49.596;11.070;2024-02-04T07:12:42;9.50;76.20
15359;DHT22;7779;49.596;11.070;2024-02-04T07:15:08;9.50;76.10
15359;DHT22;7779;49.596;11.070;2024-02-04T07:17:34;9.50;76.10
15359;DHT22;7779;49.596;11.070;2024-02-04T07:20:01;9.50;76.20
15359;DHT22;7779;49.596;11.070;2024-02-04T07:22:28;9.60;76.30
15359;DHT22;7779;49.596;11.070;2024-02-04T07:24:54;9.60;76.30
15359;DHT22;7779;49.596;11.070;2024-02-04T07:27:20;9.60;76.30
15359;DHT22;7779;49.596;11.070;2024-02-04T07:29:45;9.60;76.30
15359;DHT22;7779;49.596;11.070;2024-02-04T07:32:13;9.60;76.30
15359;DHT22;7779;49.596;11.070;2024-02-04T07:34:40;9.60;76.30
15359;DHT22;7779;49.596;11.070;2024-02-04T07:37:06;9.70;76.40
15359;DHT22;7779;49.596;11.070;2024-02-04T07:39:32;9.70;76.30
15359;DHT22;7779;49.596;11.070;2024-02-04T07:41:58;9.70;76.30
15359;DHT22;7779;49.596;11.070;2024-02-04T07:44:26;9.70;76.30
15359;DHT22;7779;49.596;11.070;2024-02-04T07:46:53;9.70;76.20
15359;DHT22;7779;49.596;11.070;2024-02-04T07:49:19;9.80;76.20
15359;DHT22;7779;49.596;11.070;2024-02-04T07:51:44;9.80;76.20
15359;DHT22;7779;49.596;11.070;2024-02-04T07:54:10;9.80;76.20
15359;DHT22;7779;49.596;11.070;2024-02-04T07:56:36;9.80;76.20
15359;DHT22;7779;49.596;11.070;2024-02-04T07:59:02;9.80;76.10
15359;DHT22;7779;49.596;11.070;2024-02-04T08:01:29;9.90;76.20
15359;DHT22;7779;49.596;11.070;2024-02-04T08:03:56;9.90;76.10
15359;DHT22;7779;49.596;11.070;2024-02-04T08:06:21;9.90;76.10
15359;DHT22;7779;49.596;11.070;2024-02-04T08:08:48;9.90;76.10
15359;DHT22;7779;49.596;11.070;2024-02-04T08:11:18;9.90;76.10
15359;DHT22;7779;49.596;11.070;2024-02-04T08:13:44;9.90;76.00
15359;DHT22;7779;49.596;11.070;2024-02-04T08:16:10;10.00;75.00
15359;DHT22;7779;49.596;11.070;2024-02-04T08:18:37;10.00;74.90
15359;DHT22;7779;49.596;11.070;2024-02-04T08:21:02;10.00;74.90
15359;DHT22;7779;49.596;11.070;2024-02-04T08:23:29;10.00;74.90
15359;DHT22;7779;49.596;11.070;2024-02-04T08:25:54;10.10;74.90
15359;DHT22;7779;49.596;11.070;2024-02-04T08:28:22;10.10;74.90
15359;DHT22;7779;49.596;11.070;2024-02-04T08:30:49;10.10;74.80
15359;DHT22;7779;49.596;11.070;2024-02-04T08:33:15;10.10;74.80
15359;DHT22;7779;49.596;11.070;2024-02-04T08:35:41;10.10;74.80
15359;DHT22;7779;49.596;11.070;2024-02-04T08:38:06;10.10;75.40
15359;DHT22;7779;49.596;11.070;2024-02-04T08:40:32;10.20;74.80
15359;DHT22;7779;49.596;11.070;2024-02-04T08:42:58;10.20;74.80
15359;DHT22;7779;49.596;11.070;2024-02-04T08:45:24;10.20;74.70
15359;DHT22;7779;49.596;11.070;2024-02-04T08:47:49;10.20;74.60
15359;DHT22;7779;49.596;11.070;2024-02-04T08:50:15;10.30;74.70
15359;DHT22;7779;49.596;11.070;2024-02-04T08:52:41;10.30;74.70
15359;DHT22;7779;49.596;11.070;2024-02-04T08:55:07;10.30;74.70
15359;DHT22;7779;49.596;11.070;2024-02-04T08:57:32;10.40;74.70
15359;DHT22;7779;49.596;11.070;2024-02-04T08:59:58;10.40;74.70
15359;DHT22;7779;49.596;11.070;2024-02-04T09:02:24;10.40;74.60
15359;DHT22;7779;49.596;11.070;2024-02-04T09:04:49;10.40;74.60
15359;DHT22;7779;49.596;11.070;2024-02-04T09:07:15;10.40;74.60
15359;DHT22;7779;49.596;11.070;2024-02-04T09:09:41;10.50;74.60
15359;DHT22;7779;49.596;11.070;2024-02-04T09:12:09;10.50;74.50
15359;DHT22;7779;49.596;11.070;2024-02-04T09:14:35;10.50;74.40
15359;DHT22;7779;49.596;11.070;2024-02-04T09:17:04;10.60;74.50
15359;DHT22;7779;49.596;11.070;2024-02-04T09:19:31;10.60;74.40
15359;DHT22;7779;49.596;11.070;2024-02-04T09:21:57;10.70;73.70
15359;DHT22;7779;49.596;11.070;2024-02-04T09:24:23;10.70;74.50
15359;DHT22;7779;49.596;11.070;2024-02-04T09:26:49;10.70;74.40
15359;DHT22;7779;49.596;11.070;2024-02-04T09:29:15;10.80;74.30
15359;DHT22;7779;49.596;11.070;2024-02-04T09:31:40;10.80;74.30
15359;DHT22;7779;49.596;11.070;2024-02-04T09:34:06;10.80;74.10
15359;DHT22;7779;49.596;11.070;2024-02-04T09:36:32;10.90;74.10
15359;DHT22;7779;49.596;11.070;2024-02-04T09:38:57;10.90;74.00
15359;DHT22;7779;49.596;11.070;2024-02-04T09:41:23;10.90;73.90
15359;DHT22;7779;49.596;11.070;2024-02-04T09:43:50;11.00;73.90
15359;DHT22;7779;49.596;11.070;2024-02-04T09:46:17;10.90;73.70
15359;DHT22;7779;49.596;11.070;2024-02-04T09:48:45;11.00;73.80
15359;DHT22;7779;49.596;11.070;2024-02-04T09:51:11;11.00;73.60
15359;DHT22;7779;49.596;11.070;2024-02-04T09:53:42;11.00;73.60
15359;DHT22;7779;49.596;11.070;2024-02-04T09:56:09;11.10;73.60
15359;DHT22;7779;49.596;11.070;2024-02-04T09:58:37;11.10;73.60
15359;DHT22;7779;49.596;11.070;2024-02-04T10:01:04;11.10;73.50
15359;DHT22;7779;49.596;11.070;2024-02-04T10:03:33;11.10;73.40
15359;DHT22;7779;49.596;11.070;2024-02-04T10:05:59;11.20;73.50
15359;DHT22;7779;49.596;11.070;2024-02-04T10:08:24;11.20;73.50
15359;DHT22;7779;49.596;11.070;2024-02-04T10:10:50;11.20;73.50
15359;DHT22;7779;49.596;11.070;2024-02-04T10:13:16;11.20;73.50
15359;DHT22;7779;49.596;11.070;2024-02-04T10:15:42;11.30;73.60
15359;DHT22;7779;49.596;11.070;2024-02-04T10:18:08;11.30;73.50
15359;DHT22;7779;49.596;11.070;2024-02-04T10:20:34;11.40;73.60
15359;DHT22;7779;49.596;11.070;2024-02-04T10:23:01;11.40;73.40
15359;DHT22;7779;49.596;11.070;2024-02-04T10:25:26;11.40;73.40
15359;DHT22;7779;49.596;11.070;2024-02-04T10:27:53;11.50;73.40
15359;DHT22;7779;49.596;11.070;2024-02-04T10:30:20;11.50;73.20
15359;DHT22;7779;49.596;11.070;2024-02-04T10:32:50;11.60;73.20
15359;DHT22;7779;49.596;11.070;2024-02-04T10:35:16;11.60;73.10
15359;DHT22;7779;49.596;11.070;2024-02-04T10:37:45;11.60;72.90
15359;DHT22;7779;49.596;11.070;2024-02-04T10:40:11;11.70;72.80
15359;DHT22;7779;49.596;11.070;2024-02-04T10:42:38;11.70;72.60
15359;DHT22;7779;49.596;11.070;2024-02-04T10:45:08;11.70;72.50
15359;DHT22;7779;49.596;11.070;2024-02-04T10:47:38;11.70;72.30
15359;DHT22;7779;49.596;11.070;2024-02-04T10:50:05;11.70;72.20
15359;DHT22;7779;49.596;11.070;2024-02-04T10:52:36;11.70;72.10
15359;DHT22;7779;49.596;11.070;2024-02-04T10:55:11;11.70;71.80
15359;DHT22;7779;49.596;11.070;2024-02-04T10:57:40;11.70;71.80
15359;DHT22;7779;49.596;11.070;2024-02-04T11:00:07;11.70;71.80
15359;DHT22;7779;49.596;11.070;2024-02-04T11:02:35;11.70;71.80
15359;DHT22;7779;49.596;11.070;2024-02-04T11:05:05;11.70;71.90
15359;DHT22;7779;49.596;11.070;2024-02-04T11:07:34;11.70;71.80
15359;DHT22;7779;49.596;11.070;2024-02-04T11:10:01;11.70;71.70
15359;DHT22;7779;49.596;11.070;2024-02-04T11:12:29;11.70;71.70
15359;DHT22;7779;49.596;11.070;2024-02-04T11:15:00;11.70;71.70
15359;DHT22;7779;49.596;11.070;2024-02-04T11:24:21;11.70;71.00
15359;DHT22;7779;49.596;11.070;2024-02-04T11:26:58;11.70;71.10
15359;DHT22;7779;49.596;11.070;2024-02-04T11:29:24;11.70;70.60
15359;DHT22;7779;49.596;11.070;2024-02-04T11:31:51;11.70;71.30
15359;DHT22;7779;49.596;11.070;2024-02-04T11:34:17;11.60;71.20
15359;DHT22;7779;49.596;11.070;2024-02-04T11:36:42;11.60;71.20
15359;DHT22;7779;49.596;11.070;2024-02-04T11:39:14;11.60;71.10
15359;DHT22;7779;49.596;11.070;2024-02-04T11:41:47;11.60;71.00
15359;DHT22;7779;49.596;11.070;2024-02-04T11:44:21;11.60;71.10
15359;DHT22;7779;49.596;11.070;2024-02-04T11:46:48;11.50;71.00
15359;DHT22;7779;49.596;11.070;2024-02-04T11:49:18;11.50;71.10
15359;DHT22;7779;49.596;11.070;2024-02-04T11:51:50;11.50;71.00
15359;DHT22;7779;49.596;11.070;2024-02-04T11:54:17;11.50;71.10
15359;DHT22;7779;49.596;11.070;2024-02-04T11:56:51;11.40;71.10
15359;DHT22;7779;49.596;11.070;2024-02-04T11:59:20;11.40;71.00
15359;DHT22;7779;49.596;11.070;2024-02-04T12:01:47;11.40;71.10
15359;DHT22;7779;49.596;11.070;2024-02-04T12:04:15;11.40;71.10
15359;DHT22;7779;49.596;11.070;2024-02-04T12:06:42;11.40;71.20
15359;DHT22;7779;49.596;11.070;2024-02-04T12:09:09;11.30;71.20
15359;DHT22;7779;49.596;11.070;2024-02-04T12:11:39;11.30;71.20
15359;DHT22;7779;49.596;11.070;2024-02-04T12:14:05;11.30;71.30
15359;DHT22;7779;49.596;11.070;2024-02-04T12:16:33;11.40;71.50
15359;DHT22;7779;49.596;11.070;2024-02-04T12:19:02;11.40;72.10
15359;DHT22;7779;49.596;11.070;2024-02-04T12:21:32;11.40;71.40
15359;DHT22;7779;49.596;11.070;2024-02-04T12:23:58;11.40;71.30
15359;DHT22;7779;49.596;11.070;2024-02-04T12:26:25;11.40;71.30
15359;DHT22;7779;49.596;11.070;2024-02-04T12:28:52;11.40;71.40
15359;DHT22;7779;49.596;11.070;2024-02-04T12:31:25;11.40;71.40
15359;DHT22;7779;49.596;11.070;2024-02-04T12:34:00;11.40;71.20
15359;DHT22;7779;49.596;11.070;2024-02-04T12:36:27;11.40;71.20
15359;DHT22;7779;49.596;11.070;2024-02-04T12:39:00;11.40;71.40
15359;DHT22;7779;49.596;11.070;2024-02-04T12:41:28;11.40;71.20
15359;DHT22;7779;49.596;11.070;2024-02-04T12:43:56;11.40;71.20
15359;DHT22;7779;49.596;11.070;2024-02-04T12:46:24;11.40;71.20
15359;DHT22;7779;49.596;11.070;2024-02-04T12:48:53;11.40;71.30
15359;DHT22;7779;49.596;11.070;2024-02-04T12:51:28;11.40;70.60
15359;DHT22;7779;49.596;11.070;2024-02-04T12:59:29;11.40;71.60
15359;DHT22;7779;49.596;11.070;2024-02-04T13:01:57;11.40;71.00
15359;DHT22;7779;49.596;11.070;2024-02-04T13:04:24;11.40;71.20
15359;DHT22;7779;49.596;11.070;2024-02-04T13:06:51;11.40;71.20
15359;DHT22;7779;49.596;11.070;2024-02-04T13:09:18;11.40;71.20
15359;DHT22;7779;49.596;11.070;2024-02-04T13:11:44;11.40;71.50
15359;DHT22;7779;49.596;11.070;2024-02-04T13:14:10;11.40;71.20
15359;DHT22;7779;49.596;11.070;2024-02-04T13:16:37;11.40;71.20
15359;DHT22;7779;49.596;11.070;2024-02-04T13:19:04;11.40;71.20
15359;DHT22;7779;49.596;11.070;2024-02-04T13:21:30;11.40;71.20
15359;DHT22;7779;49.596;11.070;2024-02-04T13:23:56;11.40;71.30
15359;DHT22;7779;49.596;11.070;2024-02-04T13:26:22;11.40;71.30
15359;DHT22;7779;49.596;11.070;2024-02-04T13:28:48;11.40;71.40
15359;DHT22;7779;49.596;11.070;2024-02-04T13:31:14;11.50;71.40
15359;DHT22;7779;49.596;11.070;2024-02-04T13:33:40;11.50;71.40
15359;DHT22;7779;49.596;11.070;2024-02-04T13:36:09;11.50;71.30
15359;DHT22;7779;49.596;11.070;2024-02-04T13:38:36;11.50;71.20
15359;DHT22;7779;49.596;11.070;2024-02-04T13:41:03;11.50;71.20
15359;DHT22;7779;49.596;11.070;2024-02-04T13:43:33;11.50;71.10
15359;DHT22;7779;49.596;11.070;2024-02-04T13:46:02;11.50;71.10
15359;DHT22;7779;49.596;11.070;2024-02-04T13:48:28;11.60;71.00
15359;DHT22;7779;49.596;11.070;2024-02-04T13:50:53;11.60;71.00
15359;DHT22;7779;49.596;11.070;2024-02-04T13:53:20;11.60;70.90
15359;DHT22;7779;49.596;11.070;2024-02-04T13:55:47;11.60;70.90
15359;DHT22;7779;49.596;11.070;2024-02-04T13:58:14;11.60;70.80
15359;DHT22;7779;49.596;11.070;2024-02-04T14:00:40;11.60;70.80
15359;DHT22;7779;49.596;11.070;2024-02-04T14:03:05;11.60;70.70
15359;DHT22;7779;49.596;11.070;2024-02-04T14:05:32;11.60;70.80
15359;DHT22;7779;49.596;11.070;2024-02-04T14:07:58;11.60;70.80
15359;DHT22;7779;49.596;11.070;2024-02-04T14:10:24;11.60;70.80
15359;DHT22;7779;49.596;11.070;2024-02-04T14:12:50;11.60;70.70
15359;DHT22;7779;49.596;11.070;2024-02-04T14:15:15;11.60;70.70
15359;DHT22;7779;49.596;11.070;2024-02-04T14:17:42;11.60;69.70
15359;DHT22;7779;49.596;11.070;2024-02-04T14:20:08;11.50;70.60
15359;DHT22;7779;49.596;11.070;2024-02-04T14:22:34;11.50;70.50
15359;DHT22;7779;49.596;11.070;2024-02-04T14:25:00;11.50;70.50
15359;DHT22;7779;49.596;11.070;2024-02-04T14:27:26;11.50;71.20
15359;DHT22;7779;49.596;11.070;2024-02-04T14:29:52;11.50;70.50
15359;DHT22;7779;49.596;11.070;2024-02-04T14:32:17;11.50;70.50
15359;DHT22;7779;49.596;11.070;2024-02-04T14:34:44;11.40;70.50
15359;DHT22;7779;49.596;11.070;2024-02-04T14:37:10;11.40;70.50
15359;DHT22;7779;49.596;11.070;2024-02-04T14:39:37;11.40;70.50
15359;DHT22;7779;49.596;11.070;2024-02-04T14:42:03;11.40;70.60
15359;DHT22;7779;49.596;11.070;2024-02-04T14:44:29;11.30;70.60
15359;DHT22;7779;49.596;11.070;2024-02-04T14:46:55;11.30;70.60
15359;DHT22;7779;49.596;11.070;2024-02-04T14:49:20;11.30;70.60
15359;DHT22;7779;49.596;11.070;2024-02-04T14:51:46;11.20;70.60
15359;DHT22;7779;49.596;11.070;2024-02-04T14:54:12;11.20;70.60
15359;DHT22;7779;49.596;11.070;2024-02-04T14:56:39;11.20;70.70
15359;DHT22;7779;49.596;11.070;2024-02-04T14:59:07;11.20;70.80
15359;DHT22;7779;49.596;11.070;2024-02-04T15:01:34;11.10;70.80
15359;DHT22;7779;49.596;11.070;2024-02-04T15:04:00;11.10;70.90
15359;DHT22;7779;49.596;11.070;2024-02-04T15:06:26;11.10;71.00
15359;DHT22;7779;49.596;11.070;2024-02-04T15:08:52;11.10;71.00
15359;DHT22;7779;49.596;11.070;2024-02-04T15:11:18;11.10;71.10
15359;DHT22;7779;49.596;11.070;2024-02-04T15:13:45;11.10;71.20
15359;DHT22;7779;49.596;11.070;2024-02-04T15:16:11;11.00;71.10
15359;DHT22;7779;49.596;11.070;2024-02-04T15:18:38;11.00;71.20
15359;DHT22;7779;49.596;11.070;2024-02-04T15:21:04;11.00;71.20
15359;DHT22;7779;49.596;11.070;2024-02-04T15:23:30;11.00;71.20
15359;DHT22;7779;49.596;11.070;2024-02-04T15:25:56;11.00;71.20
15359;DHT22;7779;49.596;11.070;2024-02-04T15:28:24;11.00;71.20
15359;DHT22;7779;49.596;11.070;2024-02-04T15:30:50;11.00;71.20
15359;DHT22;7779;49.596;11.070;2024-02-04T15:33:17;11.00;71.20
15359;DHT22;7779;49.596;11.070;2024-02-04T15:35:43;11.00;71.20
15359;DHT22;7779;49.596;11.070;2024-02-04T15:38:09;11.00;71.20
15359;DHT22;7779;49.596;11.070;2024-02-04T15:40:35;11.00;71.30
15359;DHT22;7779;49.596;11.070;2024-02-04T15:43:01;11.00;71.30
15359;DHT22;7779;49.596;11.070;2024-02-04T15:45:27;11.00;71.30
15359;DHT22;7779;49.596;11.070;2024-02-04T15:47:53;11.00;71.20